sensor_id;sensor_type;location;lat;lon;timestamp;P1;durP1;ratioP1;P2;durP2;ratioP2
28343;SDS011;15597;50.914;6.638;2023-03-19T00:02:21;7.70;;;2.42;;
28343;SDS011;15597;50.914;6.638;2023-03-19T00:04:47;7.28;;;2.60;;
28343;SDS011;15597;50.914;6.638;2023-03-19T00:07:13;6.50;;;2.30;;
28343;SDS011;15597;50.914;6.638;2023-03-19T00:09:40;6.38;;;2.47;;
28343;SDS011;15597;50.914;6.638;2023-03-19T00:12:06;5.28;;;2.17;;
28343;SDS011;15597;50.914;6.638;2023-03-19T00:14:32;6.10;;;2.25;;
28343;SDS011;15597;50.914;6.638;2023-03-19T00:16:58;7.85;;;2.33;;
28343;SDS011;15597;50.914;6.638;2023-03-19T00:19:23;5.90;;;2.33;;
28343;SDS011;15597;50.914;6.638;2023-03-19T00:21:49;7.18;;;2.92;;
28343;SDS011;15597;50.914;6.638;2023-03-19T00:24:15;5.60;;;2.30;;
28343;SDS011;15597;50.914;6.638;2023-03-19T00:26:41;5.50;;;2.17;;
28343;SDS011;15597;50.914;6.638;2023-03-19T00:29:07;6.03;;;2.22;;
28343;SDS011;15597;50.914;6.638;2023-03-19T00:31:33;5.72;;;2.30;;
28343;SDS011;15597;50.914;6.638;2023-03-19T00:33:59;6.57;;;2.38;;
28343;SDS011;15597;50.914;6.638;2023-03-19T00:36:27;5.50;;;2.10;;
28343;SDS011;15597;50.914;6.638;2023-03-19T00:38:55;6.88;;;2.28;;
28343;SDS011;15597;50.914;6.638;2023-03-19T00:41:21;5.20;;;1.92;;
28343;SDS011;15597;50.914;6.638;2023-03-19T00:43:51;6.10;;;2.17;;
28343;SDS011;15597;50.914;6.638;2023-03-19T00:46:18;6.00;;;2.22;;
28343;SDS011;15597;50.914;6.638;2023-03-19T00:48:43;6.30;;;2.72;;
28343;SDS011;15597;50.914;6.638;2023-03-19T00:51:09;9.90;;;2.42;;
28343;SDS011;15597;50.914;6.638;2023-03-19T00:53:36;5.25;;;2.20;;
28343;SDS011;15597;50.914;6.638;2023-03-19T00:56:04;4.78;;;2.30;;
28343;SDS011;15597;50.914;6.638;2023-03-19T00:58:32;5.47;;;2.10;;
28343;SDS011;15597;50.914;6.638;2023-03-19T01:00:57;5.03;;;2.40;;
28343;SDS011;15597;50.914;6.638;2023-03-19T01:03:23;5.28;;;2.00;;
28343;SDS011;15597;50.914;6.638;2023-03-19T01:05:49;6.35;;;2.20;;
28343;SDS011;15597;50.914;6.638;2023-03-19T01:08:16;6.13;;;2.40;;
28343;SDS011;15597;50.914;6.638;2023-03-19T01:10:42;5.95;;;2.47;;
28343;SDS011;15597;50.914;6.638;2023-03-19T01:13:09;6.50;;;2.70;;
28343;SDS011;15597;50.914;6.638;2023-03-19T01:15:38;6.65;;;2.35;;
28343;SDS011;15597;50.914;6.638;2023-03-19T01:18:05;5.40;;;2.70;;
28343;SDS011;15597;50.914;6.638;2023-03-19T01:20:32;7.30;;;2.30;;
28343;SDS011;15597;50.914;6.638;2023-03-19T01:22:58;7.55;;;2.60;;
28343;SDS011;15597;50.914;6.638;2023-03-19T01:25:25;6.30;;;2.40;;
28343;SDS011;15597;50.914;6.638;2023-03-19T01:27:59;6.55;;;2.17;;
28343;SDS011;15597;50.914;6.638;2023-03-19T01:30:25;5.97;;;2.55;;
28343;SDS011;15597;50.914;6.638;2023-03-19T01:33:09;4.85;;;2.30;;
28343;SDS011;15597;50.914;6.638;2023-03-19T01:35:58;5.32;;;2.17;;
28343;SDS011;15597;50.914;6.638;2023-03-19T01:38:33;5.95;;;2.33;;
28343;SDS011;15597;50.914;6.638;2023-03-19T01:41:02;6.05;;;1.95;;
28343;SDS011;15597;50.914;6.638;2023-03-19T01:43:29;5.20;;;2.17;;
28343;SDS011;15597;50.914;6.638;2023-03-19T01:51:02;5.20;;;2.17;;
28343;SDS011;15597;50.914;6.638;2023-03-19T01:53:55;5.93;;;2.03;;
28343;SDS011;15597;50.914;6.638;2023-03-19T01:56:39;4.85;;;1.88;;
28343;SDS011;15597;50.914;6.638;2023-03-19T01:59:21;6.13;;;1.92;;
28343;SDS011;15597;50.914;6.638;2023-03-19T02:02:32;5.35;;;1.95;;
28343;SDS011;15597;50.914;6.638;2023-03-19T02:05:11;5.00;;;1.90;;
28343;SDS011;15597;50.914;6.638;2023-03-19T02:07:40;5.15;;;1.77;;
28343;SDS011;15597;50.914;6.638;2023-03-19T02:10:09;5.13;;;2.03;;
28343;SDS011;15597;50.914;6.638;2023-03-19T02:12:37;5.72;;;1.95;;
28343;SDS011;15597;50.914;6.638;2023-03-19T02:15:04;4.65;;;2.10;;
28343;SDS011;15597;50.914;6.638;2023-03-19T02:17:30;4.75;;;2.15;;
28343;SDS011;15597;50.914;6.638;2023-03-19T02:20:04;4.85;;;1.73;;
28343;SDS011;15597;50.914;6.638;2023-03-19T02:22:33;5.93;;;1.90;;
28343;SDS011;15597;50.914;6.638;2023-03-19T02:25:24;5.80;;;1.80;;
28343;SDS011;15597;50.914;6.638;2023-03-19T02:27:55;5.32;;;1.90;;
28343;SDS011;15597;50.914;6.638;2023-03-19T02:30:26;5.18;;;2.00;;
28343;SDS011;15597;50.914;6.638;2023-03-19T02:32:56;5.82;;;1.65;;
28343;SDS011;15597;50.914;6.638;2023-03-19T02:35:22;4.00;;;1.83;;
28343;SDS011;15597;50.914;6.638;2023-03-19T02:37:48;4.18;;;1.90;;
28343;SDS011;15597;50.914;6.638;2023-03-19T02:40:21;4.55;;;2.00;;
28343;SDS011;15597;50.914;6.638;2023-03-19T02:42:50;4.53;;;1.90;;
28343;SDS011;15597;50.914;6.638;2023-03-19T02:45:16;5.13;;;1.77;;
28343;SDS011;15597;50.914;6.638;2023-03-19T02:47:42;4.38;;;1.73;;
28343;SDS011;15597;50.914;6.638;2023-03-19T02:50:08;4.00;;;1.60;;
28343;SDS011;15597;50.914;6.638;2023-03-19T02:52:34;5.07;;;1.65;;
28343;SDS011;15597;50.914;6.638;2023-03-19T02:55:00;6.10;;;1.95;;
28343;SDS011;15597;50.914;6.638;2023-03-19T02:57:26;4.15;;;1.80;;
28343;SDS011;15597;50.914;6.638;2023-03-19T02:59:52;4.90;;;1.80;;
28343;SDS011;15597;50.914;6.638;2023-03-19T03:02:18;4.63;;;1.60;;
28343;SDS011;15597;50.914;6.638;2023-03-19T03:04:46;5.00;;;1.80;;
28343;SDS011;15597;50.914;6.638;2023-03-19T03:07:11;3.92;;;1.60;;
28343;SDS011;15597;50.914;6.638;2023-03-19T03:09:37;5.57;;;1.83;;
28343;SDS011;15597;50.914;6.638;2023-03-19T03:12:03;4.20;;;1.70;;
28343;SDS011;15597;50.914;6.638;2023-03-19T03:14:30;5.65;;;1.80;;
28343;SDS011;15597;50.914;6.638;2023-03-19T03:16:55;3.85;;;1.60;;
28343;SDS011;15597;50.914;6.638;2023-03-19T03:19:21;5.03;;;1.80;;
28343;SDS011;15597;50.914;6.638;2023-03-19T03:21:47;3.90;;;1.73;;
28343;SDS011;15597;50.914;6.638;2023-03-19T03:24:13;4.15;;;1.60;;
28343;SDS011;15597;50.914;6.638;2023-03-19T03:26:40;5.00;;;1.70;;
28343;SDS011;15597;50.914;6.638;2023-03-19T03:29:07;5.30;;;1.70;;
28343;SDS011;15597;50.914;6.638;2023-03-19T03:31:33;4.78;;;1.63;;
28343;SDS011;15597;50.914;6.638;2023-03-19T03:33:59;4.28;;;1.70;;
28343;SDS011;15597;50.914;6.638;2023-03-19T03:36:25;3.22;;;1.52;;
28343;SDS011;15597;50.914;6.638;2023-03-19T03:38:52;5.20;;;1.73;;
28343;SDS011;15597;50.914;6.638;2023-03-19T03:41:18;4.20;;;1.67;;
28343;SDS011;15597;50.914;6.638;2023-03-19T03:43:44;5.25;;;1.90;;
28343;SDS011;15597;50.914;6.638;2023-03-19T03:46:10;5.45;;;1.70;;
28343;SDS011;15597;50.914;6.638;2023-03-19T03:48:35;4.05;;;1.55;;
28343;SDS011;15597;50.914;6.638;2023-03-19T03:51:02;4.13;;;1.67;;
28343;SDS011;15597;50.914;6.638;2023-03-19T03:53:28;3.97;;;1.77;;
28343;SDS011;15597;50.914;6.638;2023-03-19T03:55:54;6.03;;;1.70;;
28343;SDS011;15597;50.914;6.638;2023-03-19T03:58:23;5.38;;;1.77;;
28343;SDS011;15597;50.914;6.638;2023-03-19T04:00:49;5.13;;;1.70;;
28343;SDS011;15597;50.914;6.638;2023-03-19T04:03:14;4.07;;;1.73;;
28343;SDS011;15597;50.914;6.638;2023-03-19T04:05:42;4.68;;;1.80;;
28343;SDS011;15597;50.914;6.638;2023-03-19T04:08:08;5.68;;;1.98;;
28343;SDS011;15597;50.914;6.638;2023-03-19T04:10:34;4.20;;;1.55;;
28343;SDS011;15597;50.914;6.638;2023-03-19T04:13:01;4.30;;;1.50;;
28343;SDS011;15597;50.914;6.638;2023-03-19T04:15:29;3.50;;;1.50;;
28343;SDS011;15597;50.914;6.638;2023-03-19T04:17:56;3.75;;;1.58;;
28343;SDS011;15597;50.914;6.638;2023-03-19T04:20:22;4.57;;;1.50;;
28343;SDS011;15597;50.914;6.638;2023-03-19T04:22:48;4.40;;;1.58;;
28343;SDS011;15597;50.914;6.638;2023-03-19T04:25:14;4.72;;;1.80;;
28343;SDS011;15597;50.914;6.638;2023-03-19T04:27:39;4.40;;;1.70;;
28343;SDS011;15597;50.914;6.638;2023-03-19T04:30:06;4.07;;;1.70;;
28343;SDS011;15597;50.914;6.638;2023-03-19T04:32:34;4.65;;;1.75;;
28343;SDS011;15597;50.914;6.638;2023-03-19T04:35:00;4.63;;;1.70;;
28343;SDS011;15597;50.914;6.638;2023-03-19T04:37:25;3.25;;;1.50;;
28343;SDS011;15597;50.914;6.638;2023-03-19T04:39:52;4.65;;;1.73;;
28343;SDS011;15597;50.914;6.638;2023-03-19T04:42:19;5.45;;;1.70;;
28343;SDS011;15597;50.914;6.638;2023-03-19T04:45:01;4.20;;;1.50;;
28343;SDS011;15597;50.914;6.638;2023-03-19T04:47:28;3.95;;;1.50;;
28343;SDS011;15597;50.914;6.638;2023-03-19T04:49:56;5.47;;;1.55;;
28343;SDS011;15597;50.914;6.638;2023-03-19T04:52:23;4.28;;;1.70;;
28343;SDS011;15597;50.914;6.638;2023-03-19T04:54:49;3.80;;;1.67;;
28343;SDS011;15597;50.914;6.638;2023-03-19T04:57:15;4.57;;;1.60;;
28343;SDS011;15597;50.914;6.638;2023-03-19T04:59:43;3.85;;;1.50;;
28343;SDS011;15597;50.914;6.638;2023-03-19T05:02:11;4.43;;;1.70;;
28343;SDS011;15597;50.914;6.638;2023-03-19T05:04:37;3.40;;;1.42;;
28343;SDS011;15597;50.914;6.638;2023-03-19T05:07:07;5.00;;;1.48;;
28343;SDS011;15597;50.914;6.638;2023-03-19T05:09:34;4.75;;;1.60;;
28343;SDS011;15597;50.914;6.638;2023-03-19T05:12:00;3.95;;;1.50;;
28343;SDS011;15597;50.914;6.638;2023-03-19T05:14:26;4.07;;;1.50;;
28343;SDS011;15597;50.914;6.638;2023-03-19T05:16:59;4.38;;;1.48;;
28343;SDS011;15597;50.914;6.638;2023-03-19T05:19:32;4.28;;;1.50;;
28343;SDS011;15597;50.914;6.638;2023-03-19T05:21:58;4.15;;;1.15;;
28343;SDS011;15597;50.914;6.638;2023-03-19T05:24:26;3.83;;;1.50;;
28343;SDS011;15597;50.914;6.638;2023-03-19T05:26:53;3.67;;;1.40;;
28343;SDS011;15597;50.914;6.638;2023-03-19T05:29:38;4.05;;;1.60;;
28343;SDS011;15597;50.914;6.638;2023-03-19T05:32:22;3.42;;;1.40;;
28343;SDS011;15597;50.914;6.638;2023-03-19T05:34:48;4.75;;;1.50;;
28343;SDS011;15597;50.914;6.638;2023-03-19T05:37:14;3.80;;;1.30;;
28343;SDS011;15597;50.914;6.638;2023-03-19T05:39:44;4.05;;;1.40;;
28343;SDS011;15597;50.914;6.638;2023-03-19T05:42:10;4.43;;;1.55;;
28343;SDS011;15597;50.914;6.638;2023-03-19T05:44:36;5.18;;;1.42;;
28343;SDS011;15597;50.914;6.638;2023-03-19T05:47:34;4.07;;;1.58;;
28343;SDS011;15597;50.914;6.638;2023-03-19T05:50:00;3.83;;;1.40;;
28343;SDS011;15597;50.914;6.638;2023-03-19T05:52:26;3.30;;;1.40;;
28343;SDS011;15597;50.914;6.638;2023-03-19T05:54:55;4.70;;;1.60;;
28343;SDS011;15597;50.914;6.638;2023-03-19T05:57:41;3.83;;;1.60;;
28343;SDS011;15597;50.914;6.638;2023-03-19T06:00:20;4.85;;;1.85;;
28343;SDS011;15597;50.914;6.638;2023-03-19T06:02:46;3.50;;;1.50;;
28343;SDS011;15597;50.914;6.638;2023-03-19T06:05:32;3.33;;;1.42;;
28343;SDS011;15597;50.914;6.638;2023-03-19T06:08:06;3.70;;;1.45;;
28343;SDS011;15597;50.914;6.638;2023-03-19T06:10:47;5.35;;;1.60;;
28343;SDS011;15597;50.914;6.638;2023-03-19T06:13:13;4.53;;;1.50;;
28343;SDS011;15597;50.914;6.638;2023-03-19T06:15:52;3.70;;;1.38;;
28343;SDS011;15597;50.914;6.638;2023-03-19T06:18:43;4.03;;;1.48;;
28343;SDS011;15597;50.914;6.638;2023-03-19T06:21:13;3.72;;;1.30;;
28343;SDS011;15597;50.914;6.638;2023-03-19T06:23:39;3.90;;;1.45;;
28343;SDS011;15597;50.914;6.638;2023-03-19T06:26:06;3.22;;;1.33;;
28343;SDS011;15597;50.914;6.638;2023-03-19T06:28:40;3.45;;;1.35;;
28343;SDS011;15597;50.914;6.638;2023-03-19T06:31:06;4.28;;;1.48;;
28343;SDS011;15597;50.914;6.638;2023-03-19T06:33:50;4.55;;;1.52;;
28343;SDS011;15597;50.914;6.638;2023-03-19T06:36:16;4.63;;;1.60;;
28343;SDS011;15597;50.914;6.638;2023-03-19T06:38:42;4.15;;;1.33;;
28343;SDS011;15597;50.914;6.638;2023-03-19T06:41:07;4.45;;;1.50;;
28343;SDS011;15597;50.914;6.638;2023-03-19T06:43:33;4.70;;;1.35;;
28343;SDS011;15597;50.914;6.638;2023-03-19T06:46:03;3.75;;;1.30;;
28343;SDS011;15597;50.914;6.638;2023-03-19T06:48:29;3.10;;;1.40;;
28343;SDS011;15597;50.914;6.638;2023-03-19T06:50:55;5.05;;;1.50;;
28343;SDS011;15597;50.914;6.638;2023-03-19T06:53:20;4.30;;;1.48;;
28343;SDS011;15597;50.914;6.638;2023-03-19T06:55:46;3.60;;;1.40;;
28343;SDS011;15597;50.914;6.638;2023-03-19T06:58:11;3.08;;;1.38;;
28343;SDS011;15597;50.914;6.638;2023-03-19T07:00:37;4.68;;;1.65;;
28343;SDS011;15597;50.914;6.638;2023-03-19T07:03:03;3.80;;;1.30;;
28343;SDS011;15597;50.914;6.638;2023-03-19T07:05:29;3.95;;;1.27;;
28343;SDS011;15597;50.914;6.638;2023-03-19T07:07:55;4.10;;;1.40;;
28343;SDS011;15597;50.914;6.638;2023-03-19T07:10:20;3.45;;;1.40;;
28343;SDS011;15597;50.914;6.638;2023-03-19T07:12:46;3.80;;;1.50;;
28343;SDS011;15597;50.914;6.638;2023-03-19T07:15:12;3.22;;;1.33;;
28343;SDS011;15597;50.914;6.638;2023-03-19T07:17:38;4.20;;;1.50;;
28343;SDS011;15597;50.914;6.638;2023-03-19T07:20:04;3.67;;;1.80;;
28343;SDS011;15597;50.914;6.638;2023-03-19T07:22:33;4.30;;;1.50;;
28343;SDS011;15597;50.914;6.638;2023-03-19T07:24:59;5.25;;;1.55;;
28343;SDS011;15597;50.914;6.638;2023-03-19T07:27:25;3.35;;;1.25;;
28343;SDS011;15597;50.914;6.638;2023-03-19T07:29:50;4.20;;;1.60;;
28343;SDS011;15597;50.914;6.638;2023-03-19T07:32:16;3.38;;;1.33;;
28343;SDS011;15597;50.914;6.638;2023-03-19T07:34:42;3.25;;;1.40;;
28343;SDS011;15597;50.914;6.638;2023-03-19T07:37:07;3.47;;;1.25;;
28343;SDS011;15597;50.914;6.638;2023-03-19T07:39:33;5.00;;;1.48;;
28343;SDS011;15597;50.914;6.638;2023-03-19T07:41:59;3.17;;;1.10;;
28343;SDS011;15597;50.914;6.638;2023-03-19T07:44:33;4.15;;;1.50;;
28343;SDS011;15597;50.914;6.638;2023-03-19T07:47:00;3.30;;;1.30;;
28343;SDS011;15597;50.914;6.638;2023-03-19T07:49:25;3.92;;;1.55;;
28343;SDS011;15597;50.914;6.638;2023-03-19T07:51:51;3.50;;;1.20;;
28343;SDS011;15597;50.914;6.638;2023-03-19T07:54:16;3.15;;;1.30;;
28343;SDS011;15597;50.914;6.638;2023-03-19T07:56:42;5.38;;;1.38;;
28343;SDS011;15597;50.914;6.638;2023-03-19T07:59:08;3.25;;;1.33;;
28343;SDS011;15597;50.914;6.638;2023-03-19T08:01:34;3.60;;;1.30;;
28343;SDS011;15597;50.914;6.638;2023-03-19T08:04:00;4.18;;;1.73;;
28343;SDS011;15597;50.914;6.638;2023-03-19T08:06:26;3.50;;;1.20;;
28343;SDS011;15597;50.914;6.638;2023-03-19T08:08:51;2.42;;;1.15;;
28343;SDS011;15597;50.914;6.638;2023-03-19T08:11:17;3.60;;;1.38;;
28343;SDS011;15597;50.914;6.638;2023-03-19T08:13:42;4.55;;;1.42;;
28343;SDS011;15597;50.914;6.638;2023-03-19T08:16:08;4.00;;;2.20;;
28343;SDS011;15597;50.914;6.638;2023-03-19T08:18:34;3.10;;;1.25;;
28343;SDS011;15597;50.914;6.638;2023-03-19T08:21:01;3.28;;;1.30;;
28343;SDS011;15597;50.914;6.638;2023-03-19T08:23:27;5.28;;;1.40;;
28343;SDS011;15597;50.914;6.638;2023-03-19T08:25:53;2.97;;;1.42;;
28343;SDS011;15597;50.914;6.638;2023-03-19T08:28:21;3.75;;;1.73;;
28343;SDS011;15597;50.914;6.638;2023-03-19T08:30:49;3.45;;;1.30;;
28343;SDS011;15597;50.914;6.638;2023-03-19T08:33:16;2.92;;;1.20;;
28343;SDS011;15597;50.914;6.638;2023-03-19T08:35:41;2.80;;;1.30;;
28343;SDS011;15597;50.914;6.638;2023-03-19T08:38:09;2.53;;;1.10;;
28343;SDS011;15597;50.914;6.638;2023-03-19T08:40:35;4.28;;;1.38;;
28343;SDS011;15597;50.914;6.638;2023-03-19T08:43:01;2.05;;;1.00;;
28343;SDS011;15597;50.914;6.638;2023-03-19T08:45:29;3.47;;;1.30;;
28343;SDS011;15597;50.914;6.638;2023-03-19T08:47:55;4.28;;;1.52;;
28343;SDS011;15597;50.914;6.638;2023-03-19T08:50:22;3.38;;;1.38;;
28343;SDS011;15597;50.914;6.638;2023-03-19T08:52:47;4.50;;;2.08;;
28343;SDS011;15597;50.914;6.638;2023-03-19T08:55:13;3.13;;;1.20;;
28343;SDS011;15597;50.914;6.638;2023-03-19T08:57:40;3.35;;;1.20;;
28343;SDS011;15597;50.914;6.638;2023-03-19T09:00:06;4.22;;;1.38;;
28343;SDS011;15597;50.914;6.638;2023-03-19T09:02:32;3.85;;;2.00;;
28343;SDS011;15597;50.914;6.638;2023-03-19T09:04:58;4.70;;;1.52;;
28343;SDS011;15597;50.914;6.638;2023-03-19T09:07:23;3.25;;;1.30;;
28343;SDS011;15597;50.914;6.638;2023-03-19T09:09:49;3.78;;;1.40;;
28343;SDS011;15597;50.914;6.638;2023-03-19T09:12:15;3.65;;;1.50;;
28343;SDS011;15597;50.914;6.638;2023-03-19T09:14:41;2.75;;;1.25;;
28343;SDS011;15597;50.914;6.638;2023-03-19T09:17:08;4.22;;;1.80;;
28343;SDS011;15597;50.914;6.638;2023-03-19T09:19:35;3.47;;;1.40;;
28343;SDS011;15597;50.914;6.638;2023-03-19T09:22:01;4.10;;;1.55;;
28343;SDS011;15597;50.914;6.638;2023-03-19T09:24:28;3.90;;;1.63;;
28343;SDS011;15597;50.914;6.638;2023-03-19T09:26:53;3.97;;;2.05;;
28343;SDS011;15597;50.914;6.638;2023-03-19T09:29:19;4.00;;;1.73;;
28343;SDS011;15597;50.914;6.638;2023-03-19T09:31:45;5.72;;;2.05;;
28343;SDS011;15597;50.914;6.638;2023-03-19T09:34:11;2.80;;;1.10;;
28343;SDS011;15597;50.914;6.638;2023-03-19T09:36:38;3.72;;;1.95;;
28343;SDS011;15597;50.914;6.638;2023-03-19T09:39:04;3.88;;;1.30;;
28343;SDS011;15597;50.914;6.638;2023-03-19T09:41:36;3.10;;;1.50;;
28343;SDS011;15597;50.914;6.638;2023-03-19T09:49:29;4.07;;;1.80;;
28343;SDS011;15597;50.914;6.638;2023-03-19T09:52:25;3.65;;;1.35;;
28343;SDS011;15597;50.914;6.638;2023-03-19T09:54:59;3.42;;;1.73;;
28343;SDS011;15597;50.914;6.638;2023-03-19T09:57:31;4.35;;;1.95;;
28343;SDS011;15597;50.914;6.638;2023-03-19T09:59:59;3.22;;;1.30;;
28343;SDS011;15597;50.914;6.638;2023-03-19T10:02:36;5.18;;;1.90;;
28343;SDS011;15597;50.914;6.638;2023-03-19T10:05:14;4.40;;;1.85;;
28343;SDS011;15597;50.914;6.638;2023-03-19T10:16:10;5.43;;;1.70;;
28343;SDS011;15597;50.914;6.638;2023-03-19T10:18:46;2.95;;;1.20;;
28343;SDS011;15597;50.914;6.638;2023-03-19T10:24:02;4.15;;;1.35;;
28343;SDS011;15597;50.914;6.638;2023-03-19T10:26:57;2.90;;;1.27;;
28343;SDS011;15597;50.914;6.638;2023-03-19T10:29:24;3.90;;;1.70;;
28343;SDS011;15597;50.914;6.638;2023-03-19T10:34:52;5.13;;;1.40;;
28343;SDS011;15597;50.914;6.638;2023-03-19T10:37:19;5.50;;;1.20;;
28343;SDS011;15597;50.914;6.638;2023-03-19T10:39:47;3.47;;;1.40;;
28343;SDS011;15597;50.914;6.638;2023-03-19T10:47:57;3.03;;;1.25;;
28343;SDS011;15597;50.914;6.638;2023-03-19T10:50:29;2.95;;;1.20;;
28343;SDS011;15597;50.914;6.638;2023-03-19T10:53:03;4.63;;;1.40;;
28343;SDS011;15597;50.914;6.638;2023-03-19T10:55:32;3.85;;;1.40;;
28343;SDS011;15597;50.914;6.638;2023-03-19T10:58:05;3.42;;;1.17;;
28343;SDS011;15597;50.914;6.638;2023-03-19T11:00:39;3.78;;;1.23;;
28343;SDS011;15597;50.914;6.638;2023-03-19T11:03:09;3.67;;;1.20;;
28343;SDS011;15597;50.914;6.638;2023-03-19T11:08:42;4.45;;;1.40;;
28343;SDS011;15597;50.914;6.638;2023-03-19T11:11:21;3.03;;;1.23;;
28343;SDS011;15597;50.914;6.638;2023-03-19T11:13:48;3.03;;;1.35;;
28343;SDS011;15597;50.914;6.638;2023-03-19T11:16:14;3.60;;;1.30;;
28343;SDS011;15597;50.914;6.638;2023-03-19T11:18:40;3.47;;;1.30;;
28343;SDS011;15597;50.914;6.638;2023-03-19T11:21:07;3.17;;;1.00;;
28343;SDS011;15597;50.914;6.638;2023-03-19T11:23:46;3.25;;;1.20;;
28343;SDS011;15597;50.914;6.638;2023-03-19T11:26:17;3.45;;;1.23;;
28343;SDS011;15597;50.914;6.638;2023-03-19T11:28:45;4.82;;;1.40;;
28343;SDS011;15597;50.914;6.638;2023-03-19T11:33:57;3.42;;;1.20;;
28343;SDS011;15597;50.914;6.638;2023-03-19T11:47:47;3.22;;;0.98;;
28343;SDS011;15597;50.914;6.638;2023-03-19T11:53:36;4.72;;;1.30;;
28343;SDS011;15597;50.914;6.638;2023-03-19T11:56:20;2.78;;;0.82;;
28343;SDS011;15597;50.914;6.638;2023-03-19T12:04:15;2.03;;;0.70;;
28343;SDS011;15597;50.914;6.638;2023-03-19T12:15:41;2.22;;;0.88;;
28343;SDS011;15597;50.914;6.638;2023-03-19T12:26:05;3.63;;;0.90;;
28343;SDS011;15597;50.914;6.638;2023-03-19T12:28:52;2.97;;;1.10;;
28343;SDS011;15597;50.914;6.638;2023-03-19T12:37:21;4.40;;;0.60;;
28343;SDS011;15597;50.914;6.638;2023-03-19T12:42:33;2.60;;;1.00;;
28343;SDS011;15597;50.914;6.638;2023-03-19T12:45:04;2.53;;;0.80;;
28343;SDS011;15597;50.914;6.638;2023-03-19T12:47:43;3.25;;;0.80;;
28343;SDS011;15597;50.914;6.638;2023-03-19T12:50:12;1.42;;;0.70;;
28343;SDS011;15597;50.914;6.638;2023-03-19T12:52:46;2.05;;;0.80;;
28343;SDS011;15597;50.914;6.638;2023-03-19T12:55:16;2.15;;;0.88;;
28343;SDS011;15597;50.914;6.638;2023-03-19T12:57:53;1.40;;;0.55;;
28343;SDS011;15597;50.914;6.638;2023-03-19T13:05:46;2.60;;;0.75;;
28343;SDS011;15597;50.914;6.638;2023-03-19T13:10:58;2.00;;;0.73;;
28343;SDS011;15597;50.914;6.638;2023-03-19T13:13:37;2.67;;;0.80;;
28343;SDS011;15597;50.914;6.638;2023-03-19T13:16:17;2.22;;;0.88;;
28343;SDS011;15597;50.914;6.638;2023-03-19T13:21:43;3.28;;;1.10;;
28343;SDS011;15597;50.914;6.638;2023-03-19T13:26:41;2.92;;;1.10;;
28343;SDS011;15597;50.914;6.638;2023-03-19T13:29:24;2.65;;;0.90;;
28343;SDS011;15597;50.914;6.638;2023-03-19T13:31:51;3.85;;;1.30;;
28343;SDS011;15597;50.914;6.638;2023-03-19T13:34:28;3.47;;;1.13;;
28343;SDS011;15597;50.914;6.638;2023-03-19T13:39:34;1.67;;;0.77;;
28343;SDS011;15597;50.914;6.638;2023-03-19T13:46:59;2.30;;;0.60;;
28343;SDS011;15597;50.914;6.638;2023-03-19T13:57:52;2.38;;;0.95;;
28343;SDS011;15597;50.914;6.638;2023-03-19T14:03:21;2.15;;;0.88;;
28343;SDS011;15597;50.914;6.638;2023-03-19T14:08:18;2.05;;;0.80;;
28343;SDS011;15597;50.914;6.638;2023-03-19T14:10:47;2.35;;;0.80;;
28343;SDS011;15597;50.914;6.638;2023-03-19T14:16:06;2.03;;;1.00;;
28343;SDS011;15597;50.914;6.638;2023-03-19T14:18:39;2.50;;;0.90;;
28343;SDS011;15597;50.914;6.638;2023-03-19T14:24:19;3.85;;;1.00;;
28343;SDS011;15597;50.914;6.638;2023-03-19T14:26:45;2.88;;;0.70;;
28343;SDS011;15597;50.914;6.638;2023-03-19T14:29:13;4.18;;;0.90;;
28343;SDS011;15597;50.914;6.638;2023-03-19T14:36:48;2.10;;;0.95;;
28343;SDS011;15597;50.914;6.638;2023-03-19T14:39:24;2.45;;;1.00;;
28343;SDS011;15597;50.914;6.638;2023-03-19T14:41:58;1.65;;;0.85;;
28343;SDS011;15597;50.914;6.638;2023-03-19T14:49:48;5.13;;;1.98;;
28343;SDS011;15597;50.914;6.638;2023-03-19T14:52:45;3.58;;;1.60;;
28343;SDS011;15597;50.914;6.638;2023-03-19T14:55:31;5.45;;;1.83;;
28343;SDS011;15597;50.914;6.638;2023-03-19T14:58:00;3.65;;;1.20;;
28343;SDS011;15597;50.914;6.638;2023-03-19T15:03:22;2.47;;;1.02;;
28343;SDS011;15597;50.914;6.638;2023-03-19T15:05:48;2.55;;;0.95;;
28343;SDS011;15597;50.914;6.638;2023-03-19T15:08:21;1.80;;;0.88;;
28343;SDS011;15597;50.914;6.638;2023-03-19T15:10:56;3.38;;;1.20;;
28343;SDS011;15597;50.914;6.638;2023-03-19T15:19:26;3.85;;;0.95;;
28343;SDS011;15597;50.914;6.638;2023-03-19T15:22:30;2.55;;;1.00;;
28343;SDS011;15597;50.914;6.638;2023-03-19T15:25:03;4.45;;;1.52;;
28343;SDS011;15597;50.914;6.638;2023-03-19T15:27:28;4.78;;;2.38;;
28343;SDS011;15597;50.914;6.638;2023-03-19T15:29:54;3.03;;;1.30;;
28343;SDS011;15597;50.914;6.638;2023-03-19T15:35:14;3.95;;;2.10;;
28343;SDS011;15597;50.914;6.638;2023-03-19T15:37:41;3.25;;;1.35;;
28343;SDS011;15597;50.914;6.638;2023-03-19T15:40:11;3.67;;;1.17;;
28343;SDS011;15597;50.914;6.638;2023-03-19T15:42:40;4.70;;;2.25;;
28343;SDS011;15597;50.914;6.638;2023-03-19T15:45:08;4.93;;;1.92;;
28343;SDS011;15597;50.914;6.638;2023-03-19T15:47:44;3.22;;;1.38;;
28343;SDS011;15597;50.914;6.638;2023-03-19T15:50:17;3.05;;;1.00;;
28343;SDS011;15597;50.914;6.638;2023-03-19T15:52:49;3.35;;;1.27;;
28343;SDS011;15597;50.914;6.638;2023-03-19T15:55:21;3.70;;;1.40;;
28343;SDS011;15597;50.914;6.638;2023-03-19T15:57:49;2.42;;;0.98;;
28343;SDS011;15597;50.914;6.638;2023-03-19T16:00:14;2.13;;;0.90;;
28343;SDS011;15597;50.914;6.638;2023-03-19T16:02:42;3.05;;;1.00;;
28343;SDS011;15597;50.914;6.638;2023-03-19T16:05:24;7.55;;;3.70;;
28343;SDS011;15597;50.914;6.638;2023-03-19T16:07:53;6.55;;;3.00;;
28343;SDS011;15597;50.914;6.638;2023-03-19T16:12:53;3.92;;;1.42;;
28343;SDS011;15597;50.914;6.638;2023-03-19T16:15:21;4.70;;;2.38;;
28343;SDS011;15597;50.914;6.638;2023-03-19T16:17:47;11.18;;;1.60;;
28343;SDS011;15597;50.914;6.638;2023-03-19T16:20:13;7.75;;;1.80;;
28343;SDS011;15597;50.914;6.638;2023-03-19T16:22:40;3.85;;;2.08;;
28343;SDS011;15597;50.914;6.638;2023-03-19T16:25:13;3.72;;;1.52;;
28343;SDS011;15597;50.914;6.638;2023-03-19T16:27:43;6.05;;;1.83;;
28343;SDS011;15597;50.914;6.638;2023-03-19T16:32:59;7.13;;;1.40;;
28343;SDS011;15597;50.914;6.638;2023-03-19T16:35:27;10.00;;;4.18;;
28343;SDS011;15597;50.914;6.638;2023-03-19T16:40:40;10.68;;;1.98;;
28343;SDS011;15597;50.914;6.638;2023-03-19T16:43:14;8.35;;;3.92;;
28343;SDS011;15597;50.914;6.638;2023-03-19T16:48:07;7.95;;;1.83;;
28343;SDS011;15597;50.914;6.638;2023-03-19T16:50:37;6.68;;;1.30;;
28343;SDS011;15597;50.914;6.638;2023-03-19T16:53:08;10.50;;;1.80;;
28343;SDS011;15597;50.914;6.638;2023-03-19T16:55:43;7.97;;;1.63;;
28343;SDS011;15597;50.914;6.638;2023-03-19T16:58:11;9.18;;;1.70;;
28343;SDS011;15597;50.914;6.638;2023-03-19T17:00:40;8.35;;;1.50;;
28343;SDS011;15597;50.914;6.638;2023-03-19T17:03:11;8.88;;;2.20;;
28343;SDS011;15597;50.914;6.638;2023-03-19T17:05:39;11.02;;;4.35;;
28343;SDS011;15597;50.914;6.638;2023-03-19T17:08:05;9.07;;;4.00;;
28343;SDS011;15597;50.914;6.638;2023-03-19T17:10:31;9.57;;;2.58;;
28343;SDS011;15597;50.914;6.638;2023-03-19T17:12:59;5.45;;;1.63;;
28343;SDS011;15597;50.914;6.638;2023-03-19T17:15:29;10.65;;;1.83;;
28343;SDS011;15597;50.914;6.638;2023-03-19T17:17:56;12.02;;;2.85;;
28343;SDS011;15597;50.914;6.638;2023-03-19T17:20:36;15.85;;;6.65;;
28343;SDS011;15597;50.914;6.638;2023-03-19T17:23:11;11.45;;;5.38;;
28343;SDS011;15597;50.914;6.638;2023-03-19T17:25:37;12.93;;;6.03;;
28343;SDS011;15597;50.914;6.638;2023-03-19T17:28:03;17.15;;;7.00;;
28343;SDS011;15597;50.914;6.638;2023-03-19T17:30:29;12.70;;;3.30;;
28343;SDS011;15597;50.914;6.638;2023-03-19T17:32:54;11.85;;;2.05;;
28343;SDS011;15597;50.914;6.638;2023-03-19T17:35:21;9.30;;;1.70;;
28343;SDS011;15597;50.914;6.638;2023-03-19T17:37:47;16.00;;;6.82;;